sensor_id;sensor_type;location;lat;lon;timestamp;P1;durP1;ratioP1;P2;durP2;ratioP2
8312;SDS011;4194;43.408;24.626;2023-06-05T00:02:01;9.50;;;6.37;;
8312;SDS011;4194;43.408;24.626;2023-06-05T00:04:27;7.77;;;5.30;;
8312;SDS011;4194;43.408;24.626;2023-06-05T00:06:53;11.20;;;5.50;;
8312;SDS011;4194;43.408;24.626;2023-06-05T00:09:19;10.80;;;5.67;;
8312;SDS011;4194;43.408;24.626;2023-06-05T00:11:45;10.97;;;5.90;;
8312;SDS011;4194;43.408;24.626;2023-06-05T00:14:11;8.10;;;5.80;;
8312;SDS011;4194;43.408;24.626;2023-06-05T00:16:37;6.77;;;5.47;;
8312;SDS011;4194;43.408;24.626;2023-06-05T00:19:03;7.73;;;5.77;;
8312;SDS011;4194;43.408;24.626;2023-06-05T00:21:29;7.83;;;5.87;;
8312;SDS011;4194;43.408;24.626;2023-06-05T00:23:55;5.80;;;5.17;;
8312;SDS011;4194;43.408;24.626;2023-06-05T00:26:21;7.40;;;5.40;;
8312;SDS011;4194;43.408;24.626;2023-06-05T00:28:47;7.63;;;5.33;;
8312;SDS011;4194;43.408;24.626;2023-06-05T00:31:13;9.90;;;5.80;;
8312;SDS011;4194;43.408;24.626;2023-06-05T00:33:39;7.43;;;5.10;;
8312;SDS011;4194;43.408;24.626;2023-06-05T00:36:05;8.60;;;5.57;;
8312;SDS011;4194;43.408;24.626;2023-06-05T00:38:31;6.57;;;5.33;;
8312;SDS011;4194;43.408;24.626;2023-06-05T00:40:57;7.90;;;5.60;;
8312;SDS011;4194;43.408;24.626;2023-06-05T00:43:23;7.33;;;4.90;;
8312;SDS011;4194;43.408;24.626;2023-06-05T00:45:48;5.93;;;4.27;;
8312;SDS011;4194;43.408;24.626;2023-06-05T00:48:20;9.70;;;4.70;;
8312;SDS011;4194;43.408;24.626;2023-06-05T00:50:45;9.47;;;5.00;;
8312;SDS011;4194;43.408;24.626;2023-06-05T00:53:11;10.63;;;5.80;;
8312;SDS011;4194;43.408;24.626;2023-06-05T00:55:37;7.10;;;4.73;;
8312;SDS011;4194;43.408;24.626;2023-06-05T00:58:03;11.70;;;4.67;;
8312;SDS011;4194;43.408;24.626;2023-06-05T01:00:29;7.47;;;5.10;;
8312;SDS011;4194;43.408;24.626;2023-06-05T01:02:55;11.20;;;5.50;;
8312;SDS011;4194;43.408;24.626;2023-06-05T01:05:22;8.47;;;4.70;;
8312;SDS011;4194;43.408;24.626;2023-06-05T01:07:49;8.60;;;5.17;;
8312;SDS011;4194;43.408;24.626;2023-06-05T01:10:15;7.60;;;4.70;;
8312;SDS011;4194;43.408;24.626;2023-06-05T01:15:25;9.40;;;4.80;;
8312;SDS011;4194;43.408;24.626;2023-06-05T01:17:54;5.50;;;4.00;;
8312;SDS011;4194;43.408;24.626;2023-06-05T01:20:34;6.03;;;4.77;;
8312;SDS011;4194;43.408;24.626;2023-06-05T01:23:01;8.40;;;4.10;;
8312;SDS011;4194;43.408;24.626;2023-06-05T01:25:28;4.83;;;4.17;;
8312;SDS011;4194;43.408;24.626;2023-06-05T01:27:55;6.20;;;4.03;;
8312;SDS011;4194;43.408;24.626;2023-06-05T01:30:36;5.20;;;4.57;;
8312;SDS011;4194;43.408;24.626;2023-06-05T01:33:13;6.77;;;4.10;;
8312;SDS011;4194;43.408;24.626;2023-06-05T01:35:45;15.23;;;4.20;;
8312;SDS011;4194;43.408;24.626;2023-06-05T01:38:16;5.83;;;4.27;;
8312;SDS011;4194;43.408;24.626;2023-06-05T01:40:43;6.63;;;4.20;;
8312;SDS011;4194;43.408;24.626;2023-06-05T01:43:10;6.37;;;4.10;;
8312;SDS011;4194;43.408;24.626;2023-06-05T01:45:37;8.90;;;3.93;;
8312;SDS011;4194;43.408;24.626;2023-06-05T01:48:06;5.90;;;4.77;;
8312;SDS011;4194;43.408;24.626;2023-06-05T01:50:35;7.57;;;4.47;;
8312;SDS011;4194;43.408;24.626;2023-06-05T01:53:02;5.27;;;4.13;;
8312;SDS011;4194;43.408;24.626;2023-06-05T01:55:29;9.60;;;4.77;;
8312;SDS011;4194;43.408;24.626;2023-06-05T01:57:56;5.53;;;4.40;;
8312;SDS011;4194;43.408;24.626;2023-06-05T02:00:21;6.00;;;4.40;;
8312;SDS011;4194;43.408;24.626;2023-06-05T02:02:48;10.10;;;4.30;;
8312;SDS011;4194;43.408;24.626;2023-06-05T02:05:15;6.50;;;4.37;;
8312;SDS011;4194;43.408;24.626;2023-06-05T02:07:46;10.50;;;4.13;;
8312;SDS011;4194;43.408;24.626;2023-06-05T02:10:18;6.30;;;4.20;;
8312;SDS011;4194;43.408;24.626;2023-06-05T02:12:44;10.80;;;4.57;;
8312;SDS011;4194;43.408;24.626;2023-06-05T02:15:10;8.87;;;4.57;;
8312;SDS011;4194;43.408;24.626;2023-06-05T02:17:40;7.27;;;3.97;;
8312;SDS011;4194;43.408;24.626;2023-06-05T02:20:18;7.30;;;3.63;;
8312;SDS011;4194;43.408;24.626;2023-06-05T02:22:46;7.80;;;4.67;;
8312;SDS011;4194;43.408;24.626;2023-06-05T02:25:15;6.23;;;4.43;;
8312;SDS011;4194;43.408;24.626;2023-06-05T02:27:41;6.40;;;4.30;;
8312;SDS011;4194;43.408;24.626;2023-06-05T02:30:07;9.63;;;4.13;;
8312;SDS011;4194;43.408;24.626;2023-06-05T02:32:33;9.67;;;4.33;;
8312;SDS011;4194;43.408;24.626;2023-06-05T02:35:01;6.47;;;4.00;;
8312;SDS011;4194;43.408;24.626;2023-06-05T02:37:30;6.40;;;4.20;;
8312;SDS011;4194;43.408;24.626;2023-06-05T02:40:02;7.07;;;4.30;;
8312;SDS011;4194;43.408;24.626;2023-06-05T02:42:32;8.80;;;3.80;;
8312;SDS011;4194;43.408;24.626;2023-06-05T02:44:59;5.93;;;3.47;;
8312;SDS011;4194;43.408;24.626;2023-06-05T02:47:24;6.93;;;4.07;;
8312;SDS011;4194;43.408;24.626;2023-06-05T02:49:50;9.60;;;3.77;;
8312;SDS011;4194;43.408;24.626;2023-06-05T02:52:16;7.87;;;3.23;;
8312;SDS011;4194;43.408;24.626;2023-06-05T02:54:41;5.83;;;4.20;;
8312;SDS011;4194;43.408;24.626;2023-06-05T02:57:07;8.13;;;4.00;;
8312;SDS011;4194;43.408;24.626;2023-06-05T02:59:33;6.43;;;4.43;;
8312;SDS011;4194;43.408;24.626;2023-06-05T03:02:04;8.67;;;4.50;;
8312;SDS011;4194;43.408;24.626;2023-06-05T03:04:30;8.13;;;4.73;;
8312;SDS011;4194;43.408;24.626;2023-06-05T03:06:57;5.67;;;4.13;;
8312;SDS011;4194;43.408;24.626;2023-06-05T03:09:24;5.57;;;3.87;;
8312;SDS011;4194;43.408;24.626;2023-06-05T03:11:50;6.83;;;4.30;;
8312;SDS011;4194;43.408;24.626;2023-06-05T03:14:15;5.77;;;3.50;;
8312;SDS011;4194;43.408;24.626;2023-06-05T03:16:41;7.77;;;4.03;;
8312;SDS011;4194;43.408;24.626;2023-06-05T03:19:08;7.67;;;3.60;;
8312;SDS011;4194;43.408;24.626;2023-06-05T03:21:36;6.77;;;3.90;;
8312;SDS011;4194;43.408;24.626;2023-06-05T03:24:03;12.13;;;4.03;;
8312;SDS011;4194;43.408;24.626;2023-06-05T03:26:30;8.00;;;3.87;;
8312;SDS011;4194;43.408;24.626;2023-06-05T03:28:57;7.60;;;4.07;;
8312;SDS011;4194;43.408;24.626;2023-06-05T03:31:23;12.87;;;4.13;;
8312;SDS011;4194;43.408;24.626;2023-06-05T03:33:49;10.30;;;4.17;;
8312;SDS011;4194;43.408;24.626;2023-06-05T03:36:14;5.37;;;3.77;;
8312;SDS011;4194;43.408;24.626;2023-06-05T03:38:42;6.00;;;3.47;;
8312;SDS011;4194;43.408;24.626;2023-06-05T03:41:11;5.53;;;3.23;;
8312;SDS011;4194;43.408;24.626;2023-06-05T03:43:37;6.93;;;3.23;;
8312;SDS011;4194;43.408;24.626;2023-06-05T03:46:03;5.87;;;3.47;;
8312;SDS011;4194;43.408;24.626;2023-06-05T03:48:29;7.83;;;3.70;;
8312;SDS011;4194;43.408;24.626;2023-06-05T03:50:55;4.47;;;3.57;;
8312;SDS011;4194;43.408;24.626;2023-06-05T03:53:22;5.43;;;3.77;;
8312;SDS011;4194;43.408;24.626;2023-06-05T03:55:48;6.43;;;3.60;;
8312;SDS011;4194;43.408;24.626;2023-06-05T03:58:17;5.03;;;3.57;;
8312;SDS011;4194;43.408;24.626;2023-06-05T04:00:45;5.17;;;3.47;;
8312;SDS011;4194;43.408;24.626;2023-06-05T04:03:13;6.50;;;3.43;;
8312;SDS011;4194;43.408;24.626;2023-06-05T04:05:40;5.60;;;3.17;;
8312;SDS011;4194;43.408;24.626;2023-06-05T04:08:07;4.23;;;3.23;;
8312;SDS011;4194;43.408;24.626;2023-06-05T04:10:34;8.23;;;3.60;;
8312;SDS011;4194;43.408;24.626;2023-06-05T04:13:00;5.67;;;3.73;;
8312;SDS011;4194;43.408;24.626;2023-06-05T04:15:26;5.40;;;3.33;;
8312;SDS011;4194;43.408;24.626;2023-06-05T04:17:53;4.70;;;3.07;;
8312;SDS011;4194;43.408;24.626;2023-06-05T04:20:19;5.90;;;3.00;;
8312;SDS011;4194;43.408;24.626;2023-06-05T04:22:45;5.60;;;3.17;;
8312;SDS011;4194;43.408;24.626;2023-06-05T04:25:11;6.93;;;3.83;;
8312;SDS011;4194;43.408;24.626;2023-06-05T04:27:41;12.20;;;3.73;;
8312;SDS011;4194;43.408;24.626;2023-06-05T04:30:08;7.97;;;3.83;;
8312;SDS011;4194;43.408;24.626;2023-06-05T04:32:36;9.40;;;3.70;;
8312;SDS011;4194;43.408;24.626;2023-06-05T04:35:27;7.83;;;3.37;;
8312;SDS011;4194;43.408;24.626;2023-06-05T04:37:54;11.07;;;3.50;;
8312;SDS011;4194;43.408;24.626;2023-06-05T04:40:21;11.43;;;3.83;;
8312;SDS011;4194;43.408;24.626;2023-06-05T04:42:47;10.20;;;3.43;;
8312;SDS011;4194;43.408;24.626;2023-06-05T04:45:13;8.90;;;3.77;;
8312;SDS011;4194;43.408;24.626;2023-06-05T04:47:41;12.03;;;3.60;;
8312;SDS011;4194;43.408;24.626;2023-06-05T04:50:07;5.70;;;3.73;;
8312;SDS011;4194;43.408;24.626;2023-06-05T04:52:34;9.83;;;3.40;;
8312;SDS011;4194;43.408;24.626;2023-06-05T04:55:00;8.83;;;4.00;;
8312;SDS011;4194;43.408;24.626;2023-06-05T04:57:27;9.77;;;3.93;;
8312;SDS011;4194;43.408;24.626;2023-06-05T04:59:53;8.70;;;3.43;;
8312;SDS011;4194;43.408;24.626;2023-06-05T05:02:20;11.50;;;4.17;;
8312;SDS011;4194;43.408;24.626;2023-06-05T05:04:46;8.80;;;4.20;;
8312;SDS011;4194;43.408;24.626;2023-06-05T05:07:12;8.60;;;4.53;;
8312;SDS011;4194;43.408;24.626;2023-06-05T05:09:44;7.67;;;3.90;;
8312;SDS011;4194;43.408;24.626;2023-06-05T05:12:10;7.93;;;4.00;;
8312;SDS011;4194;43.408;24.626;2023-06-05T05:14:36;10.30;;;4.23;;
8312;SDS011;4194;43.408;24.626;2023-06-05T05:17:03;10.00;;;4.60;;
8312;SDS011;4194;43.408;24.626;2023-06-05T05:19:29;8.17;;;4.30;;
8312;SDS011;4194;43.408;24.626;2023-06-05T05:21:55;10.53;;;4.30;;
8312;SDS011;4194;43.408;24.626;2023-06-05T05:24:21;8.83;;;5.00;;
8312;SDS011;4194;43.408;24.626;2023-06-05T05:26:48;7.30;;;4.43;;
8312;SDS011;4194;43.408;24.626;2023-06-05T05:29:14;7.43;;;4.00;;
8312;SDS011;4194;43.408;24.626;2023-06-05T05:31:40;9.97;;;4.70;;
8312;SDS011;4194;43.408;24.626;2023-06-05T05:34:06;6.87;;;4.37;;
8312;SDS011;4194;43.408;24.626;2023-06-05T05:36:31;7.27;;;4.10;;
8312;SDS011;4194;43.408;24.626;2023-06-05T05:38:58;5.83;;;4.10;;
8312;SDS011;4194;43.408;24.626;2023-06-05T05:41:24;10.37;;;4.97;;
8312;SDS011;4194;43.408;24.626;2023-06-05T05:43:49;15.37;;;4.93;;
8312;SDS011;4194;43.408;24.626;2023-06-05T05:46:15;10.70;;;5.40;;
8312;SDS011;4194;43.408;24.626;2023-06-05T05:48:41;9.47;;;6.60;;
8312;SDS011;4194;43.408;24.626;2023-06-05T05:51:07;12.60;;;5.47;;
8312;SDS011;4194;43.408;24.626;2023-06-05T05:53:33;10.30;;;5.60;;
8312;SDS011;4194;43.408;24.626;2023-06-05T05:55:59;14.87;;;5.57;;
8312;SDS011;4194;43.408;24.626;2023-06-05T05:58:25;13.17;;;5.60;;
8312;SDS011;4194;43.408;24.626;2023-06-05T06:00:51;10.57;;;4.70;;
8312;SDS011;4194;43.408;24.626;2023-06-05T06:03:17;9.00;;;4.80;;
8312;SDS011;4194;43.408;24.626;2023-06-05T06:05:44;10.40;;;5.43;;
8312;SDS011;4194;43.408;24.626;2023-06-05T06:08:10;9.30;;;5.03;;
8312;SDS011;4194;43.408;24.626;2023-06-05T06:10:36;11.03;;;5.50;;
8312;SDS011;4194;43.408;24.626;2023-06-05T06:13:02;14.00;;;6.77;;
8312;SDS011;4194;43.408;24.626;2023-06-05T06:15:29;11.80;;;7.20;;
8312;SDS011;4194;43.408;24.626;2023-06-05T06:17:57;12.67;;;6.90;;
8312;SDS011;4194;43.408;24.626;2023-06-05T06:20:27;7.27;;;5.00;;
8312;SDS011;4194;43.408;24.626;2023-06-05T06:22:53;12.83;;;6.33;;
8312;SDS011;4194;43.408;24.626;2023-06-05T06:25:20;13.63;;;7.50;;
8312;SDS011;4194;43.408;24.626;2023-06-05T06:27:46;15.77;;;6.60;;
8312;SDS011;4194;43.408;24.626;2023-06-05T06:30:13;11.90;;;6.80;;
8312;SDS011;4194;43.408;24.626;2023-06-05T06:32:39;12.40;;;7.40;;
8312;SDS011;4194;43.408;24.626;2023-06-05T06:35:06;17.23;;;8.90;;
8312;SDS011;4194;43.408;24.626;2023-06-05T06:37:32;12.77;;;8.37;;
8312;SDS011;4194;43.408;24.626;2023-06-05T06:39:57;19.23;;;9.20;;
8312;SDS011;4194;43.408;24.626;2023-06-05T06:42:24;10.60;;;7.47;;
8312;SDS011;4194;43.408;24.626;2023-06-05T06:44:49;12.67;;;7.77;;
8312;SDS011;4194;43.408;24.626;2023-06-05T06:47:20;11.57;;;8.83;;
8312;SDS011;4194;43.408;24.626;2023-06-05T06:49:50;11.60;;;8.33;;
8312;SDS011;4194;43.408;24.626;2023-06-05T06:52:16;13.97;;;8.53;;
8312;SDS011;4194;43.408;24.626;2023-06-05T06:54:43;10.67;;;7.87;;
8312;SDS011;4194;43.408;24.626;2023-06-05T06:57:09;13.00;;;8.37;;
8312;SDS011;4194;43.408;24.626;2023-06-05T06:59:35;12.47;;;7.90;;
8312;SDS011;4194;43.408;24.626;2023-06-05T07:04:37;10.63;;;7.87;;
8312;SDS011;4194;43.408;24.626;2023-06-05T07:07:03;10.23;;;6.83;;
8312;SDS011;4194;43.408;24.626;2023-06-05T07:09:29;9.77;;;6.20;;
8312;SDS011;4194;43.408;24.626;2023-06-05T07:11:55;7.07;;;5.30;;
8312;SDS011;4194;43.408;24.626;2023-06-05T07:14:21;8.33;;;5.63;;
8312;SDS011;4194;43.408;24.626;2023-06-05T07:16:47;6.30;;;4.30;;
8312;SDS011;4194;43.408;24.626;2023-06-05T07:19:15;5.68;;;3.70;;
8312;SDS011;4194;43.408;24.626;2023-06-05T07:21:41;6.97;;;3.63;;
8312;SDS011;4194;43.408;24.626;2023-06-05T07:24:07;6.63;;;3.00;;
8312;SDS011;4194;43.408;24.626;2023-06-05T07:26:33;6.37;;;3.20;;
8312;SDS011;4194;43.408;24.626;2023-06-05T07:28:59;7.10;;;3.50;;
8312;SDS011;4194;43.408;24.626;2023-06-05T07:31:25;5.80;;;3.30;;
8312;SDS011;4194;43.408;24.626;2023-06-05T07:33:51;5.70;;;3.20;;
8312;SDS011;4194;43.408;24.626;2023-06-05T07:36:17;5.23;;;3.40;;
8312;SDS011;4194;43.408;24.626;2023-06-05T07:38:42;4.87;;;3.33;;
8312;SDS011;4194;43.408;24.626;2023-06-05T07:41:10;3.93;;;3.00;;
8312;SDS011;4194;43.408;24.626;2023-06-05T07:43:36;4.83;;;2.73;;
8312;SDS011;4194;43.408;24.626;2023-06-05T07:46:05;8.60;;;2.77;;
8312;SDS011;4194;43.408;24.626;2023-06-05T07:48:31;4.77;;;2.67;;
8312;SDS011;4194;43.408;24.626;2023-06-05T07:50:57;6.10;;;3.20;;
8312;SDS011;4194;43.408;24.626;2023-06-05T07:53:22;3.07;;;2.77;;
8312;SDS011;4194;43.408;24.626;2023-06-05T07:55:48;4.77;;;2.70;;
8312;SDS011;4194;43.408;24.626;2023-06-05T07:58:15;6.33;;;2.67;;
8312;SDS011;4194;43.408;24.626;2023-06-05T08:00:42;6.93;;;2.80;;
8312;SDS011;4194;43.408;24.626;2023-06-05T08:03:08;3.30;;;2.57;;
8312;SDS011;4194;43.408;24.626;2023-06-05T08:05:35;4.43;;;2.60;;
8312;SDS011;4194;43.408;24.626;2023-06-05T08:08:01;4.00;;;2.93;;
8312;SDS011;4194;43.408;24.626;2023-06-05T08:10:27;3.67;;;2.37;;
8312;SDS011;4194;43.408;24.626;2023-06-05T08:12:53;3.53;;;3.23;;
8312;SDS011;4194;43.408;24.626;2023-06-05T08:15:18;3.07;;;2.77;;
8312;SDS011;4194;43.408;24.626;2023-06-05T08:17:44;6.17;;;3.20;;
8312;SDS011;4194;43.408;24.626;2023-06-05T08:20:10;3.07;;;2.70;;
8312;SDS011;4194;43.408;24.626;2023-06-05T08:22:36;3.63;;;3.10;;
8312;SDS011;4194;43.408;24.626;2023-06-05T08:25:05;3.97;;;2.73;;
8312;SDS011;4194;43.408;24.626;2023-06-05T08:27:32;6.53;;;3.10;;
8312;SDS011;4194;43.408;24.626;2023-06-05T08:29:57;5.90;;;3.13;;
8312;SDS011;4194;43.408;24.626;2023-06-05T08:32:24;5.53;;;3.17;;
8312;SDS011;4194;43.408;24.626;2023-06-05T08:34:50;4.77;;;3.40;;
8312;SDS011;4194;43.408;24.626;2023-06-05T08:37:16;4.03;;;3.13;;
8312;SDS011;4194;43.408;24.626;2023-06-05T08:39:42;3.03;;;2.80;;
8312;SDS011;4194;43.408;24.626;2023-06-05T08:42:08;3.17;;;2.90;;
8312;SDS011;4194;43.408;24.626;2023-06-05T08:44:37;3.67;;;2.83;;
8312;SDS011;4194;43.408;24.626;2023-06-05T08:47:04;5.20;;;3.03;;
8312;SDS011;4194;43.408;24.626;2023-06-05T08:49:30;3.67;;;2.93;;
8312;SDS011;4194;43.408;24.626;2023-06-05T08:52:00;6.03;;;3.10;;
8312;SDS011;4194;43.408;24.626;2023-06-05T08:54:32;4.17;;;2.53;;
8312;SDS011;4194;43.408;24.626;2023-06-05T08:57:01;5.27;;;2.30;;
8312;SDS011;4194;43.408;24.626;2023-06-05T08:59:29;3.37;;;2.53;;
8312;SDS011;4194;43.408;24.626;2023-06-05T09:01:56;4.83;;;2.73;;
8312;SDS011;4194;43.408;24.626;2023-06-05T09:04:22;4.23;;;2.30;;
8312;SDS011;4194;43.408;24.626;2023-06-05T09:07:01;4.67;;;2.50;;
8312;SDS011;4194;43.408;24.626;2023-06-05T09:09:27;3.87;;;2.37;;
8312;SDS011;4194;43.408;24.626;2023-06-05T09:12:05;3.67;;;2.53;;
8312;SDS011;4194;43.408;24.626;2023-06-05T09:14:33;5.53;;;2.60;;
8312;SDS011;4194;43.408;24.626;2023-06-05T09:17:01;4.27;;;2.50;;
8312;SDS011;4194;43.408;24.626;2023-06-05T09:19:40;3.23;;;2.37;;
8312;SDS011;4194;43.408;24.626;2023-06-05T09:22:11;4.60;;;2.20;;
8312;SDS011;4194;43.408;24.626;2023-06-05T09:24:41;2.20;;;1.93;;
8312;SDS011;4194;43.408;24.626;2023-06-05T09:27:08;4.97;;;2.37;;
8312;SDS011;4194;43.408;24.626;2023-06-05T09:32:04;6.17;;;2.33;;
8312;SDS011;4194;43.408;24.626;2023-06-05T09:34:34;3.60;;;2.40;;
8312;SDS011;4194;43.408;24.626;2023-06-05T09:37:02;5.30;;;2.37;;
8312;SDS011;4194;43.408;24.626;2023-06-05T09:39:29;4.77;;;2.43;;
8312;SDS011;4194;43.408;24.626;2023-06-05T09:41:57;2.87;;;2.17;;
8312;SDS011;4194;43.408;24.626;2023-06-05T09:44:25;3.90;;;2.10;;
8312;SDS011;4194;43.408;24.626;2023-06-05T09:49:29;5.33;;;1.90;;
8312;SDS011;4194;43.408;24.626;2023-06-05T09:51:57;5.97;;;2.00;;
8312;SDS011;4194;43.408;24.626;2023-06-05T09:54:25;4.17;;;2.00;;
8312;SDS011;4194;43.408;24.626;2023-06-05T09:56:52;3.87;;;2.10;;
8312;SDS011;4194;43.408;24.626;2023-06-05T09:59:26;1.70;;;1.60;;
8312;SDS011;4194;43.408;24.626;2023-06-05T10:01:55;5.40;;;2.37;;
8312;SDS011;4194;43.408;24.626;2023-06-05T10:04:22;7.07;;;1.77;;
8312;SDS011;4194;43.408;24.626;2023-06-05T10:06:51;2.43;;;1.97;;
8312;SDS011;4194;43.408;24.626;2023-06-05T10:09:19;5.63;;;1.73;;
8312;SDS011;4194;43.408;24.626;2023-06-05T10:11:47;1.83;;;1.70;;
8312;SDS011;4194;43.408;24.626;2023-06-05T10:14:15;3.30;;;1.77;;
8312;SDS011;4194;43.408;24.626;2023-06-05T10:16:40;3.60;;;2.03;;
8312;SDS011;4194;43.408;24.626;2023-06-05T10:19:07;3.23;;;2.10;;
8312;SDS011;4194;43.408;24.626;2023-06-05T10:21:34;2.40;;;2.20;;
8312;SDS011;4194;43.408;24.626;2023-06-05T10:24:11;2.90;;;1.83;;
8312;SDS011;4194;43.408;24.626;2023-06-05T10:31:59;3.70;;;2.50;;
8312;SDS011;4194;43.408;24.626;2023-06-05T10:34:44;3.37;;;2.17;;
8312;SDS011;4194;43.408;24.626;2023-06-05T10:40:02;4.80;;;2.00;;
8312;SDS011;4194;43.408;24.626;2023-06-05T10:42:29;9.37;;;2.63;;
8312;SDS011;4194;43.408;24.626;2023-06-05T10:44:55;4.70;;;2.30;;
8312;SDS011;4194;43.408;24.626;2023-06-05T10:52:43;3.72;;;2.10;;
8312;SDS011;4194;43.408;24.626;2023-06-05T10:55:11;4.63;;;2.03;;
8312;SDS011;4194;43.408;24.626;2023-06-05T11:00:28;3.07;;;1.87;;
8312;SDS011;4194;43.408;24.626;2023-06-05T11:02:54;5.47;;;2.47;;
8312;SDS011;4194;43.408;24.626;2023-06-05T11:05:21;2.80;;;2.27;;
8312;SDS011;4194;43.408;24.626;2023-06-05T11:07:47;3.03;;;2.40;;
8312;SDS011;4194;43.408;24.626;2023-06-05T11:13:53;2.33;;;1.93;;
8312;SDS011;4194;43.408;24.626;2023-06-05T11:16:30;2.20;;;1.90;;
8312;SDS011;4194;43.408;24.626;2023-06-05T11:22:07;3.67;;;1.97;;
8312;SDS011;4194;43.408;24.626;2023-06-05T11:24:34;2.42;;;1.85;;
8312;SDS011;4194;43.408;24.626;2023-06-05T11:27:03;4.30;;;1.80;;
8312;SDS011;4194;43.408;24.626;2023-06-05T11:29:30;3.03;;;2.03;;
8312;SDS011;4194;43.408;24.626;2023-06-05T11:31:57;2.67;;;2.42;;
8312;SDS011;4194;43.408;24.626;2023-06-05T11:34:23;7.30;;;2.13;;
8312;SDS011;4194;43.408;24.626;2023-06-05T11:36:50;2.13;;;1.67;;
8312;SDS011;4194;43.408;24.626;2023-06-05T11:39:16;2.03;;;1.75;;
8312;SDS011;4194;43.408;24.626;2023-06-05T11:41:47;8.32;;;2.22;;
8312;SDS011;4194;43.408;24.626;2023-06-05T11:44:30;3.38;;;2.33;;
8312;SDS011;4194;43.408;24.626;2023-06-05T11:46:57;1.85;;;1.75;;
8312;SDS011;4194;43.408;24.626;2023-06-05T11:49:23;2.17;;;1.90;;
8312;SDS011;4194;43.408;24.626;2023-06-05T11:51:50;7.13;;;2.13;;
8312;SDS011;4194;43.408;24.626;2023-06-05T11:54:26;2.33;;;1.70;;
8312;SDS011;4194;43.408;24.626;2023-06-05T11:56:58;2.20;;;1.98;;
8312;SDS011;4194;43.408;24.626;2023-06-05T11:59:34;2.00;;;1.80;;
8312;SDS011;4194;43.408;24.626;2023-06-05T12:02:01;1.92;;;1.80;;
8312;SDS011;4194;43.408;24.626;2023-06-05T12:04:28;4.07;;;2.08;;
8312;SDS011;4194;43.408;24.626;2023-06-05T12:06:58;4.18;;;2.20;;
8312;SDS011;4194;43.408;24.626;2023-06-05T12:09:27;4.95;;;1.70;;
8312;SDS011;4194;43.408;24.626;2023-06-05T12:11:56;4.13;;;2.20;;
8312;SDS011;4194;43.408;24.626;2023-06-05T12:14:33;2.20;;;2.00;;
8312;SDS011;4194;43.408;24.626;2023-06-05T12:16:59;3.05;;;1.77;;
8312;SDS011;4194;43.408;24.626;2023-06-05T12:19:25;2.70;;;2.00;;
8312;SDS011;4194;43.408;24.626;2023-06-05T12:21:51;5.07;;;1.98;;
8312;SDS011;4194;43.408;24.626;2023-06-05T12:24:27;2.45;;;2.10;;
8312;SDS011;4194;43.408;24.626;2023-06-05T12:26:54;3.03;;;1.92;;
8312;SDS011;4194;43.408;24.626;2023-06-05T12:29:21;2.30;;;2.10;;
8312;SDS011;4194;43.408;24.626;2023-06-05T12:31:49;1.83;;;1.73;;
8312;SDS011;4194;43.408;24.626;2023-06-05T12:34:16;2.30;;;2.03;;
8312;SDS011;4194;43.408;24.626;2023-06-05T12:36:42;2.58;;;2.15;;
8312;SDS011;4194;43.408;24.626;2023-06-05T12:39:09;2.38;;;2.00;;
8312;SDS011;4194;43.408;24.626;2023-06-05T12:41:36;2.22;;;2.08;;
8312;SDS011;4194;43.408;24.626;2023-06-05T12:44:03;2.22;;;2.13;;
8312;SDS011;4194;43.408;24.626;2023-06-05T12:46:30;2.53;;;2.10;;
8312;SDS011;4194;43.408;24.626;2023-06-05T12:48:57;4.70;;;2.22;;
8312;SDS011;4194;43.408;24.626;2023-06-05T12:51:26;5.35;;;1.83;;
8312;SDS011;4194;43.408;24.626;2023-06-05T12:53:53;2.75;;;1.88;;
8312;SDS011;4194;43.408;24.626;2023-06-05T12:56:19;3.17;;;1.85;;
8312;SDS011;4194;43.408;24.626;2023-06-05T12:58:56;3.33;;;1.65;;
8312;SDS011;4194;43.408;24.626;2023-06-05T13:01:23;2.15;;;1.80;;
8312;SDS011;4194;43.408;24.626;2023-06-05T13:03:56;4.53;;;1.98;;
8312;SDS011;4194;43.408;24.626;2023-06-05T13:06:21;4.00;;;1.80;;
8312;SDS011;4194;43.408;24.626;2023-06-05T13:08:47;4.40;;;1.95;;
8312;SDS011;4194;43.408;24.626;2023-06-05T13:11:13;5.72;;;2.05;;
8312;SDS011;4194;43.408;24.626;2023-06-05T13:13:39;4.13;;;2.05;;
8312;SDS011;4194;43.408;24.626;2023-06-05T13:16:05;3.28;;;1.85;;
8312;SDS011;4194;43.408;24.626;2023-06-05T13:18:33;3.90;;;1.88;;
8312;SDS011;4194;43.408;24.626;2023-06-05T13:21:00;3.42;;;2.30;;
8312;SDS011;4194;43.408;24.626;2023-06-05T13:23:26;3.72;;;1.98;;
8312;SDS011;4194;43.408;24.626;2023-06-05T13:25:52;2.80;;;1.60;;
8312;SDS011;4194;43.408;24.626;2023-06-05T13:28:17;3.42;;;2.00;;
8312;SDS011;4194;43.408;24.626;2023-06-05T13:30:44;3.75;;;1.80;;
8312;SDS011;4194;43.408;24.626;2023-06-05T13:33:09;3.17;;;1.70;;
8312;SDS011;4194;43.408;24.626;2023-06-05T13:35:36;3.25;;;2.00;;
8312;SDS011;4194;43.408;24.626;2023-06-05T13:38:01;2.83;;;2.13;;
8312;SDS011;4194;43.408;24.626;2023-06-05T13:40:27;4.25;;;2.05;;
8312;SDS011;4194;43.408;24.626;2023-06-05T13:42:53;5.38;;;1.80;;
8312;SDS011;4194;43.408;24.626;2023-06-05T13:45:19;4.45;;;1.77;;
8312;SDS011;4194;43.408;24.626;2023-06-05T13:47:45;3.40;;;1.60;;
8312;SDS011;4194;43.408;24.626;2023-06-05T13:50:11;2.70;;;1.75;;
8312;SDS011;4194;43.408;24.626;2023-06-05T13:52:37;1.67;;;1.58;;
8312;SDS011;4194;43.408;24.626;2023-06-05T13:55:03;4.10;;;1.95;;
8312;SDS011;4194;43.408;24.626;2023-06-05T13:57:30;4.20;;;2.00;;
8312;SDS011;4194;43.408;24.626;2023-06-05T13:59:55;5.18;;;2.08;;
8312;SDS011;4194;43.408;24.626;2023-06-05T14:02:21;4.70;;;1.95;;
8312;SDS011;4194;43.408;24.626;2023-06-05T14:04:47;3.05;;;1.73;;
8312;SDS011;4194;43.408;24.626;2023-06-05T14:07:12;2.35;;;1.80;;
8312;SDS011;4194;43.408;24.626;2023-06-05T14:09:38;2.88;;;1.73;;
8312;SDS011;4194;43.408;24.626;2023-06-05T14:12:04;3.20;;;1.98;;
8312;SDS011;4194;43.408;24.626;2023-06-05T14:14:30;4.30;;;1.85;;
8312;SDS011;4194;43.408;24.626;2023-06-05T14:16:56;2.25;;;2.05;;
8312;SDS011;4194;43.408;24.626;2023-06-05T14:19:22;3.17;;;1.98;;
8312;SDS011;4194;43.408;24.626;2023-06-05T14:21:47;2.15;;;1.77;;
8312;SDS011;4194;43.408;24.626;2023-06-05T14:24:14;2.70;;;1.80;;
8312;SDS011;4194;43.408;24.626;2023-06-05T14:26:40;2.22;;;1.70;;
8312;SDS011;4194;43.408;24.626;2023-06-05T14:29:06;1.95;;;1.70;;
8312;SDS011;4194;43.408;24.626;2023-06-05T14:31:32;2.92;;;1.88;;
8312;SDS011;4194;43.408;24.626;2023-06-05T14:33:58;2.88;;;1.88;;
8312;SDS011;4194;43.408;24.626;2023-06-05T14:36:23;4.00;;;1.95;;
8312;SDS011;4194;43.408;24.626;2023-06-05T14:38:50;1.73;;;1.63;;
8312;SDS011;4194;43.408;24.626;2023-06-05T14:41:16;3.58;;;2.15;;
8312;SDS011;4194;43.408;24.626;2023-06-05T14:43:42;2.35;;;1.60;;
8312;SDS011;4194;43.408;24.626;2023-06-05T14:46:07;2.63;;;2.00;;
8312;SDS011;4194;43.408;24.626;2023-06-05T14:48:33;3.22;;;1.67;;
8312;SDS011;4194;43.408;24.626;2023-06-05T14:50:59;1.75;;;1.58;;
8312;SDS011;4194;43.408;24.626;2023-06-05T14:53:24;3.05;;;1.80;;
8312;SDS011;4194;43.408;24.626;2023-06-05T14:55:52;2.53;;;1.85;;
8312;SDS011;4194;43.408;24.626;2023-06-05T14:58:18;5.35;;;1.92;;
8312;SDS011;4194;43.408;24.626;2023-06-05T15:00:44;2.92;;;1.80;;
8312;SDS011;4194;43.408;24.626;2023-06-05T15:03:10;2.35;;;1.95;;
8312;SDS011;4194;43.408;24.626;2023-06-05T15:05:36;2.60;;;1.90;;
8312;SDS011;4194;43.408;24.626;2023-06-05T15:08:02;2.28;;;1.90;;
8312;SDS011;4194;43.408;24.626;2023-06-05T15:10:27;4.78;;;2.13;;
8312;SDS011;4194;43.408;24.626;2023-06-05T15:12:53;3.10;;;2.05;;
8312;SDS011;4194;43.408;24.626;2023-06-05T15:15:22;3.25;;;2.13;;
8312;SDS011;4194;43.408;24.626;2023-06-05T15:17:49;4.43;;;1.67;;
8312;SDS011;4194;43.408;24.626;2023-06-05T15:20:17;3.83;;;2.20;;
8312;SDS011;4194;43.408;24.626;2023-06-05T15:22:44;2.33;;;1.65;;
8312;SDS011;4194;43.408;24.626;2023-06-05T15:25:10;4.55;;;1.80;;
8312;SDS011;4194;43.408;24.626;2023-06-05T15:27:36;3.45;;;2.22;;
8312;SDS011;4194;43.408;24.626;2023-06-05T15:30:03;2.90;;;2.20;;
8312;SDS011;4194;43.408;24.626;2023-06-05T15:32:29;2.42;;;2.20;;
8312;SDS011;4194;43.408;24.626;2023-06-05T15:34:55;2.17;;;1.98;;